Time;durP1;ratioP1;P1;durP2;ratioP2;P2;SDS_P1;SDS_P2;PMS_P1;PMS_P2;Temp;Humidity;BMP_temperature;BMP_pressure;BME280_temperature;BME280_humidity;BME280_pressure;Samples;Min_cycle;Max_cycle;Signal;HPM_P1;HPM_P2
2023/06/19 00:01:58;;;;;;;9.48;6.68;;;24.40;57.00;;;;;;5073485;28;20093;-64
2023/06/19 00:04:23;;;;;;;8.88;6.28;;;24.40;57.00;;;;;;5073174;28;20032;-65
2023/06/19 00:06:49;;;;;;;8.63;6.35;;;24.40;57.00;;;;;;5071968;28;20633;-65
2023/06/19 00:09:15;;;;;;;7.13;5.78;;;24.40;57.00;;;;;;5073146;28;20106;-65
2023/06/19 00:11:40;;;;;;;7.90;5.90;;;24.40;57.00;;;;;;5072106;28;20044;-64
2023/06/19 00:14:06;;;;;;;8.10;5.72;;;24.40;57.00;;;;;;5073975;28;20052;-64
2023/06/19 00:16:32;;;;;;;8.13;5.88;;;24.40;57.00;;;;;;5072445;28;20046;-64
2023/06/19 00:18:57;;;;;;;8.48;6.13;;;24.40;57.00;;;;;;5073927;28;20036;-65
2023/06/19 00:21:26;;;;;;;9.02;6.07;;;24.40;57.00;;;;;;5074054;28;20090;-65
2023/06/19 00:23:52;;;;;;;7.60;6.28;;;24.40;57.00;;;;;;5073498;28;20040;-65
2023/06/19 00:26:19;;;;;;;8.70;6.05;;;24.40;57.00;;;;;;5074099;28;20045;-65
2023/06/19 00:28:45;;;;;;;9.95;6.03;;;24.40;57.00;;;;;;5072634;28;20053;-65
2023/06/19 00:31:13;;;;;;;8.70;6.40;;;24.40;57.00;;;;;;5073221;28;20476;-65
2023/06/19 00:33:40;;;;;;;7.85;6.00;;;24.40;57.00;;;;;;5072365;28;20539;-65
2023/06/19 00:36:12;;;;;;;7.47;5.72;;;24.40;57.00;;;;;;5072841;28;20051;-65
2023/06/19 00:38:38;;;;;;;8.60;6.18;;;24.40;57.00;;;;;;5072497;28;20045;-65
2023/06/19 00:41:05;;;;;;;8.50;6.15;;;24.40;57.00;;;;;;5073442;28;20040;-65
2023/06/19 00:43:30;;;;;;;8.23;5.72;;;24.40;57.00;;;;;;5071731;28;20127;-65
2023/06/19 00:45:59;;;;;;;8.48;6.30;;;24.40;57.70;;;;;;5074025;28;20064;-64
2023/06/19 00:48:26;;;;;;;9.45;5.60;;;24.40;57.00;;;;;;5068010;28;20474;-65
2023/06/19 00:50:52;;;;;;;7.18;5.82;;;24.40;57.00;;;;;;5059648;28;20045;-65
2023/06/19 00:53:18;;;;;;;7.63;5.78;;;24.30;57.00;;;;;;5055037;28;20041;-65
2023/06/19 00:55:44;;;;;;;6.90;5.68;;;24.30;57.00;;;;;;5072239;28;20381;-65
2023/06/19 00:58:09;;;;;;;7.85;6.10;;;24.40;57.00;;;;;;5071331;28;20037;-65
2023/06/19 01:00:35;;;;;;;6.95;5.63;;;24.40;57.00;;;;;;5072405;28;20369;-65
2023/06/19 01:03:00;;;;;;;8.32;5.95;;;24.40;57.00;;;;;;5073189;28;20075;-65
2023/06/19 01:05:26;;;;;;;8.70;6.00;;;24.40;57.00;;;;;;5072577;28;20044;-65
2023/06/19 01:07:59;;;;;;;7.57;5.90;;;24.40;57.00;;;;;;5072058;28;20556;-65
2023/06/19 01:10:27;;;;;;;7.72;5.70;;;24.40;57.00;;;;;;5070964;28;20070;-65
2023/06/19 01:13:11;;;;;;;6.80;5.70;;;24.30;57.00;;;;;;5054800;28;20072;-65
2023/06/19 01:15:37;;;;;;;7.90;5.90;;;24.40;57.70;;;;;;5073134;28;20052;-64
2023/06/19 01:18:03;;;;;;;7.00;5.82;;;24.40;57.00;;;;;;5054941;28;20040;-65
2023/06/19 01:20:28;;;;;;;7.85;6.03;;;24.40;57.00;;;;;;5054392;28;20040;-65
2023/06/19 01:22:56;;;;;;;7.70;6.10;;;24.40;57.00;;;;;;5072868;28;20052;-65
2023/06/19 01:25:23;;;;;;;7.78;5.72;;;24.30;56.90;;;;;;5071883;28;20094;-65
2023/06/19 01:27:48;;;;;;;7.10;5.68;;;24.40;57.00;;;;;;5071544;28;20093;-65
2023/06/19 01:30:14;;;;;;;8.27;6.05;;;24.40;57.00;;;;;;5072424;28;20447;-65
2023/06/19 01:32:56;;;;;;;7.18;5.65;;;24.30;57.00;;;;;;5071170;28;20055;-65
2023/06/19 01:35:24;;;;;;;7.97;6.15;;;24.30;56.90;;;;;;5055774;28;20127;-64
2023/06/19 01:37:49;;;;;;;7.25;5.47;;;24.30;57.00;;;;;;5071288;28;20048;-65
2023/06/19 01:40:15;;;;;;;8.70;5.90;;;24.30;57.00;;;;;;5071309;28;20037;-65
2023/06/19 01:42:40;;;;;;;7.57;6.05;;;24.30;57.00;;;;;;5054729;28;20044;-64
2023/06/19 01:45:07;;;;;;;7.88;5.40;;;24.30;57.00;;;;;;5037543;28;20048;-65
2023/06/19 01:47:32;;;;;;;7.70;5.68;;;24.30;57.00;;;;;;5053930;28;20052;-64
2023/06/19 01:49:58;;;;;;;7.15;5.47;;;24.30;57.00;;;;;;5072103;28;20037;-66
2023/06/19 01:52:24;;;;;;;7.30;5.80;;;24.30;57.00;;;;;;5071417;28;20480;-65
2023/06/19 01:54:50;;;;;;;6.70;5.28;;;24.30;57.00;;;;;;5071374;28;20049;-65
2023/06/19 01:57:15;;;;;;;7.65;5.63;;;24.30;57.00;;;;;;5072378;28;20044;-64
2023/06/19 01:59:41;;;;;;;7.15;5.50;;;24.30;57.00;;;;;;5072634;28;20036;-65
2023/06/19 02:02:07;;;;;;;6.78;5.35;;;24.30;57.00;;;;;;5071471;28;20124;-65
2023/06/19 02:04:32;;;;;;;7.00;5.32;;;24.30;57.00;;;;;;5072273;28;20518;-64
2023/06/19 02:06:58;;;;;;;6.50;5.25;;;24.30;57.00;;;;;;5070568;28;20051;-65
2023/06/19 02:09:23;;;;;;;7.47;6.13;;;24.30;57.00;;;;;;5071682;28;20044;-64
2023/06/19 02:11:49;;;;;;;7.53;5.57;;;24.30;57.00;;;;;;5071306;28;20048;-65
2023/06/19 02:14:15;;;;;;;6.53;5.18;;;24.30;57.00;;;;;;5072179;28;20107;-65
2023/06/19 02:16:43;;;;;;;7.10;5.45;;;24.30;57.00;;;;;;5071444;28;20442;-65
2023/06/19 02:19:12;;;;;;;6.53;5.22;;;24.30;57.00;;;;;;5071901;28;20055;-64
2023/06/19 02:21:38;;;;;;;7.18;5.57;;;24.30;57.00;;;;;;5071566;28;20052;-65
2023/06/19 02:24:04;;;;;;;6.90;5.22;;;24.30;57.00;;;;;;5070542;28;20040;-65
2023/06/19 02:26:29;;;;;;;6.32;5.22;;;24.30;57.00;;;;;;5072217;28;20048;-64
2023/06/19 02:28:55;;;;;;;6.00;5.30;;;24.30;57.00;;;;;;5069828;28;20052;-65
2023/06/19 02:31:24;;;;;;;7.38;5.35;;;24.30;57.00;;;;;;5075733;28;20507;-64
2023/06/19 02:33:50;;;;;;;6.53;5.15;;;24.30;57.00;;;;;;5076126;28;20138;-65
2023/06/19 02:36:19;;;;;;;6.82;5.47;;;24.30;57.00;;;;;;5075279;28;20123;-64
2023/06/19 02:38:48;;;;;;;9.07;5.68;;;24.30;57.00;;;;;;5076074;28;20040;-65
2023/06/19 02:41:13;;;;;;;7.43;5.47;;;24.30;57.00;;;;;;5076041;28;20044;-65
2023/06/19 02:43:42;;;;;;;5.97;5.15;;;24.30;57.00;;;;;;5075502;28;20044;-65
2023/06/19 02:46:08;;;;;;;7.57;4.78;;;24.20;56.90;;;;;;5074544;28;20045;-65
2023/06/19 02:48:34;;;;;;;8.38;5.65;;;24.30;57.00;;;;;;5074813;28;20101;-64
2023/06/19 02:51:00;;;;;;;6.45;5.18;;;24.30;57.00;;;;;;5074470;28;20041;-65
2023/06/19 02:53:25;;;;;;;6.95;5.57;;;24.20;57.00;;;;;;5074438;28;20472;-65
2023/06/19 02:55:51;;;;;;;7.07;5.40;;;24.30;57.00;;;;;;5074340;28;20451;-64
2023/06/19 02:58:16;;;;;;;6.82;5.15;;;24.20;57.00;;;;;;5073795;28;20048;-65
2023/06/19 03:00:42;;;;;;;6.80;4.97;;;24.20;57.00;;;;;;5075793;28;20438;-65
2023/06/19 03:03:08;;;;;;;6.72;5.38;;;24.20;57.00;;;;;;5075398;28;20515;-64
2023/06/19 03:05:33;;;;;;;8.50;5.43;;;24.30;57.00;;;;;;5074982;28;20095;-64
2023/06/19 03:07:59;;;;;;;6.43;5.22;;;24.30;57.00;;;;;;5073803;28;20085;-65
2023/06/19 03:10:24;;;;;;;7.15;5.30;;;24.20;57.00;;;;;;5075481;28;20032;-64
2023/06/19 03:12:50;;;;;;;6.07;4.82;;;24.20;57.00;;;;;;5074913;28;20070;-64
2023/06/19 03:15:15;;;;;;;6.70;4.80;;;24.20;57.70;;;;;;5074234;28;20801;-65
2023/06/19 03:17:41;;;;;;;7.30;5.18;;;24.30;57.00;;;;;;5075439;28;20039;-64
2023/06/19 03:20:11;;;;;;;6.68;5.30;;;24.20;56.90;;;;;;5074388;28;20501;-64
2023/06/19 03:22:38;;;;;;;6.25;4.88;;;24.30;57.00;;;;;;5075407;28;20129;-64
2023/06/19 03:25:04;;;;;;;6.00;5.00;;;24.20;57.00;;;;;;5074188;28;20044;-64
2023/06/19 03:27:30;;;;;;;7.15;5.15;;;24.20;57.00;;;;;;5074484;28;20394;-65
2023/06/19 03:29:55;;;;;;;7.07;5.40;;;24.20;57.00;;;;;;5074870;28;20131;-65
2023/06/19 03:32:21;;;;;;;6.68;5.15;;;24.30;57.00;;;;;;5074330;28;20082;-65
2023/06/19 03:34:46;;;;;;;5.85;4.95;;;24.20;57.00;;;;;;5075080;28;20116;-64
2023/06/19 03:37:12;;;;;;;7.60;5.30;;;24.20;57.10;;;;;;5074992;28;20044;-64
2023/06/19 03:39:38;;;;;;;5.80;4.60;;;24.20;57.10;;;;;;5074191;28;20041;-64
2023/06/19 03:42:03;;;;;;;5.85;4.88;;;24.20;57.00;;;;;;5074278;28;20475;-64
2023/06/19 03:44:29;;;;;;;5.75;4.72;;;24.20;57.00;;;;;;5073822;28;20067;-65
2023/06/19 03:46:55;;;;;;;6.00;4.90;;;24.20;57.00;;;;;;5074030;28;20400;-65
2023/06/19 03:49:20;;;;;;;6.72;5.22;;;24.20;57.10;;;;;;5074576;28;20036;-64
2023/06/19 03:51:46;;;;;;;6.55;4.57;;;24.20;57.10;;;;;;5075016;28;20135;-64
2023/06/19 03:54:11;;;;;;;6.68;4.68;;;24.20;57.10;;;;;;5073539;28;20048;-64
2023/06/19 03:56:38;;;;;;;6.25;4.85;;;24.20;57.10;;;;;;5074743;28;20404;-65
2023/06/19 03:59:03;;;;;;;6.82;5.10;;;24.20;57.10;;;;;;5074426;28;20056;-65
2023/06/19 04:01:29;;;;;;;6.70;4.82;;;24.20;57.10;;;;;;5066357;28;20045;-65
2023/06/19 04:03:54;;;;;;;7.28;4.90;;;24.20;57.10;;;;;;5073762;28;20043;-65
2023/06/19 04:06:20;;;;;;;5.30;4.32;;;24.20;57.10;;;;;;5073363;28;20522;-65
2023/06/19 04:08:45;;;;;;;5.50;4.72;;;24.20;57.10;;;;;;5073534;28;20403;-66
2023/06/19 04:11:11;;;;;;;6.25;4.85;;;24.20;57.10;;;;;;5073464;28;20037;-65
2023/06/19 04:13:36;;;;;;;6.57;4.82;;;24.20;57.20;;;;;;5073939;28;20039;-65
2023/06/19 04:16:02;;;;;;;6.13;4.85;;;24.20;57.20;;;;;;5071888;28;20078;-65
2023/06/19 04:18:28;;;;;;;5.85;4.55;;;24.20;57.20;;;;;;5074233;28;20041;-65
2023/06/19 04:20:53;;;;;;;6.70;5.38;;;24.20;57.30;;;;;;5074112;28;20058;-65
2023/06/19 04:23:19;;;;;;;6.13;4.65;;;24.20;57.30;;;;;;5073409;28;20044;-65
2023/06/19 04:25:44;;;;;;;6.22;4.90;;;24.20;57.30;;;;;;5074061;28;20106;-65
2023/06/19 04:28:10;;;;;;;6.25;4.60;;;24.20;57.30;;;;;;5073922;28;20568;-66
2023/06/19 04:30:39;;;;;;;6.13;4.93;;;24.20;57.30;;;;;;5074217;28;20060;-65
2023/06/19 04:33:05;;;;;;;6.53;4.97;;;24.20;57.30;;;;;;5073769;28;20041;-65
2023/06/19 04:35:31;;;;;;;5.80;4.22;;;24.20;58.00;;;;;;5072063;28;20053;-65
2023/06/19 04:38:00;;;;;;;6.28;4.68;;;24.20;57.30;;;;;;5066934;28;20432;-65
2023/06/19 04:40:26;;;;;;;6.32;4.88;;;24.20;57.40;;;;;;5061217;28;20076;-65
2023/06/19 04:42:53;;;;;;;5.53;4.35;;;24.20;57.40;;;;;;5072888;28;20103;-65
2023/06/19 04:45:19;;;;;;;6.85;5.00;;;24.20;57.40;;;;;;5073376;28;20041;-65
2023/06/19 04:47:44;;;;;;;6.50;4.90;;;24.20;57.50;;;;;;5073672;28;20504;-65
2023/06/19 04:50:10;;;;;;;6.22;4.97;;;24.20;57.40;;;;;;5072221;28;20110;-65
2023/06/19 04:52:37;;;;;;;6.22;4.72;;;24.20;57.50;;;;;;5073006;28;20111;-65
2023/06/19 04:55:05;;;;;;;5.88;4.40;;;24.20;57.50;;;;;;5072729;28;20727;-65
2023/06/19 04:57:30;;;;;;;6.57;4.40;;;24.20;57.50;;;;;;5072693;28;20044;-65
2023/06/19 04:59:56;;;;;;;6.03;4.90;;;24.20;57.50;;;;;;5073459;28;20036;-65
2023/06/19 05:02:23;;;;;;;6.22;5.00;;;24.30;57.60;;;;;;5072993;28;20135;-65
2023/06/19 05:04:49;;;;;;;6.27;4.53;;;24.30;57.60;;;;;;5072629;28;20041;-65
2023/06/19 05:07:17;;;;;;;5.85;4.63;;;24.20;57.50;;;;;;5071530;28;20440;-65
2023/06/19 05:09:43;;;;;;;6.13;4.70;;;24.20;57.60;;;;;;5072766;28;20454;-65
2023/06/19 05:12:09;;;;;;;6.10;4.53;;;24.20;57.60;;;;;;5071903;28;20040;-65
2023/06/19 05:14:35;;;;;;;6.40;4.53;;;24.30;57.60;;;;;;5072987;28;20060;-65
2023/06/19 05:17:00;;;;;;;5.78;4.80;;;24.30;57.70;;;;;;5072836;28;20068;-65
2023/06/19 05:19:26;;;;;;;6.72;4.82;;;24.30;57.70;;;;;;5072325;28;20075;-65
2023/06/19 05:21:51;;;;;;;5.70;4.53;;;24.30;57.70;;;;;;5072739;28;20072;-65
2023/06/19 05:24:17;;;;;;;6.07;4.88;;;24.30;57.60;;;;;;5072663;28;20040;-65
2023/06/19 05:26:42;;;;;;;5.50;4.28;;;24.30;57.50;;;;;;5070783;28;20044;-65
2023/06/19 05:29:08;;;;;;;6.70;4.65;;;24.30;57.50;;;;;;5072217;28;20056;-65
2023/06/19 05:31:35;;;;;;;5.43;4.40;;;24.20;57.40;;;;;;5072077;28;20048;-65
2023/06/19 05:34:00;;;;;;;6.28;4.40;;;24.30;57.50;;;;;;5071483;28;20044;-65
2023/06/19 05:36:26;;;;;;;6.20;4.63;;;24.30;57.50;;;;;;5072765;28;20408;-63
2023/06/19 05:38:51;;;;;;;5.82;4.30;;;24.30;57.50;;;;;;5071838;28;20373;-65
2023/06/19 05:41:17;;;;;;;5.70;4.57;;;24.30;57.60;;;;;;5070927;28;20047;-65
2023/06/19 05:43:43;;;;;;;6.07;3.95;;;24.30;57.60;;;;;;5072465;28;20053;-65
2023/06/19 05:46:08;;;;;;;5.57;3.70;;;24.20;57.40;;;;;;5071103;28;20199;-66
2023/06/19 05:48:34;;;;;;;5.63;3.40;;;24.30;57.80;;;;;;5072958;28;20559;-65
2023/06/19 05:50:59;;;;;;;6.13;3.40;;;24.20;58.00;;;;;;5071436;28;20555;-65
2023/06/19 05:53:25;;;;;;;5.05;3.45;;;24.20;58.40;;;;;;5072072;28;20510;-64
2023/06/19 05:55:50;;;;;;;7.68;3.60;;;24.10;58.70;;;;;;5072005;28;20411;-64
2023/06/19 05:58:19;;;;;;;5.93;3.15;;;24.10;59.00;;;;;;5072577;28;20530;-65
2023/06/19 06:00:45;;;;;;;6.90;3.63;;;24.10;59.10;;;;;;5071497;28;20036;-65
2023/06/19 06:03:11;;;;;;;5.95;3.20;;;24.00;59.30;;;;;;5072437;28;20090;-64
2023/06/19 06:05:36;;;;;;;5.90;3.20;;;24.00;59.60;;;;;;5072241;28;20036;-65
2023/06/19 06:08:02;;;;;;;5.90;3.13;;;24.00;59.70;;;;;;5070282;28;20041;-64
2023/06/19 06:10:27;;;;;;;6.38;2.80;;;24.00;59.90;;;;;;5071039;28;20040;-65
2023/06/19 06:12:53;;;;;;;7.35;3.20;;;23.90;60.00;;;;;;5072024;28;20049;-66
2023/06/19 06:15:18;;;;;;;5.47;2.72;;;24.00;60.20;;;;;;5069488;28;20028;-66
2023/06/19 06:17:44;;;;;;;5.78;2.88;;;24.00;60.30;;;;;;5072485;28;20091;-65
2023/06/19 06:20:12;;;;;;;6.07;3.22;;;23.90;60.40;;;;;;5071975;28;20040;-66
2023/06/19 06:22:41;;;;;;;7.18;3.25;;;24.00;60.40;;;;;;5071390;28;20052;-66
2023/06/19 06:25:07;;;;;;;5.63;3.00;;;23.90;60.60;;;;;;5071730;28;20126;-66
2023/06/19 06:27:33;;;;;;;7.03;3.10;;;23.90;60.60;;;;;;5072060;28;20049;-65
2023/06/19 06:29:59;;;;;;;5.68;2.80;;;23.90;60.80;;;;;;5071367;28;20041;-65
2023/06/19 06:32:24;;;;;;;8.20;3.00;;;23.90;60.80;;;;;;5071797;28;20047;-64
2023/06/19 06:34:50;;;;;;;5.53;3.30;;;23.90;61.00;;;;;;5071615;28;20112;-61
2023/06/19 06:37:22;;;;;;;6.25;3.17;;;23.80;61.10;;;;;;5071999;28;20385;-62
2023/06/19 06:39:48;;;;;;;4.70;2.95;;;23.80;61.30;;;;;;5072298;28;20041;-61
2023/06/19 06:42:13;;;;;;;5.80;3.25;;;23.80;61.50;;;;;;5071167;28;20110;-63
2023/06/19 06:44:39;;;;;;;9.80;3.53;;;23.70;61.70;;;;;;5070496;28;20118;-63
2023/06/19 06:47:04;;;;;;;5.43;3.78;;;23.70;61.90;;;;;;5070995;28;20044;-64
2023/06/19 06:49:30;;;;;;;8.85;3.60;;;23.70;62.00;;;;;;5070897;28;20043;-64
2023/06/19 06:51:55;;;;;;;7.60;3.53;;;23.60;62.20;;;;;;5071692;28;20041;-64
2023/06/19 06:54:21;;;;;;;6.28;3.40;;;23.60;62.30;;;;;;5071500;28;20041;-63
2023/06/19 06:56:47;;;;;;;6.13;3.78;;;23.60;62.40;;;;;;5071087;28;20508;-63
2023/06/19 06:59:15;;;;;;;7.80;3.47;;;23.60;62.50;;;;;;5071427;28;20139;-63
2023/06/19 07:01:41;;;;;;;6.78;3.70;;;23.60;62.60;;;;;;5071794;28;20087;-62
2023/06/19 07:04:07;;;;;;;4.93;3.03;;;23.50;62.70;;;;;;5070831;28;20044;-63
2023/06/19 07:06:32;;;;;;;5.47;3.55;;;23.50;62.80;;;;;;5071794;28;20048;-62
2023/06/19 07:08:58;;;;;;;5.72;3.10;;;23.50;63.00;;;;;;5071303;28;20036;-62
2023/06/19 07:11:23;;;;;;;7.40;3.40;;;23.50;63.00;;;;;;5074580;28;20070;-65
2023/06/19 07:13:50;;;;;;;6.90;3.10;;;23.50;63.00;;;;;;5090819;28;20040;-64
2023/06/19 07:16:15;;;;;;;7.97;3.67;;;23.50;63.10;;;;;;5088701;28;20033;-64
2023/06/19 07:18:41;;;;;;;5.63;3.15;;;23.50;63.10;;;;;;5075025;28;20047;-64
2023/06/19 07:21:10;;;;;;;6.00;3.30;;;23.50;63.10;;;;;;5074658;28;20036;-65
2023/06/19 07:23:36;;;;;;;4.40;3.00;;;23.60;63.10;;;;;;5057670;28;20048;-65
2023/06/19 07:26:01;;;;;;;4.15;2.92;;;23.60;63.10;;;;;;5056168;28;20047;-64
2023/06/19 07:28:28;;;;;;;5.15;2.80;;;23.60;63.00;;;;;;5075102;28;20052;-65
2023/06/19 07:30:53;;;;;;;5.43;2.58;;;23.70;63.10;;;;;;5075255;28;20059;-63
2023/06/19 07:33:19;;;;;;;6.18;3.05;;;23.70;63.00;;;;;;5074064;28;20120;-64
2023/06/19 07:35:46;;;;;;;8.30;3.47;;;23.80;63.00;;;;;;5075049;28;20080;-63
2023/06/19 07:38:11;;;;;;;7.18;2.95;;;23.80;62.90;;;;;;5072672;28;20075;-64
2023/06/19 07:40:37;;;;;;;5.15;3.00;;;23.80;62.90;;;;;;5074868;28;20127;-63
2023/06/19 07:43:02;;;;;;;9.77;2.90;;;23.80;62.70;;;;;;5074416;28;20074;-64
2023/06/19 07:45:28;;;;;;;5.20;2.90;;;23.90;62.60;;;;;;5073287;28;20500;-63
2023/06/19 07:47:57;;;;;;;4.28;2.50;;;23.90;62.40;;;;;;5073973;28;20048;-64
2023/06/19 07:50:23;;;;;;;5.45;2.33;;;23.90;62.30;;;;;;5073099;28;20044;-64
2023/06/19 07:52:48;;;;;;;7.50;3.15;;;24.00;62.20;;;;;;5073699;28;20053;-64
2023/06/19 07:55:14;;;;;;;5.80;2.90;;;24.00;62.20;;;;;;5074295;28;20040;-64
2023/06/19 07:57:39;;;;;;;4.63;2.78;;;24.00;62.10;;;;;;5074972;28;20078;-63
2023/06/19 08:00:11;;;;;;;5.97;3.22;;;24.00;62.20;;;;;;5073831;28;20044;-64
2023/06/19 08:02:37;;;;;;;4.82;3.22;;;24.00;62.00;;;;;;5073077;28;20480;-63
2023/06/19 08:05:03;;;;;;;4.80;2.78;;;24.00;62.10;;;;;;5067812;28;20028;-63
2023/06/19 08:07:28;;;;;;;5.00;3.08;;;24.00;62.10;;;;;;5072231;28;20127;-63
2023/06/19 08:09:54;;;;;;;6.53;3.10;;;24.00;62.10;;;;;;5072243;28;20395;-63
2023/06/19 08:12:19;;;;;;;4.65;3.30;;;24.00;62.20;;;;;;5073743;28;20043;-64
2023/06/19 08:14:45;;;;;;;4.85;3.10;;;24.00;62.10;;;;;;5073549;28;20039;-63
2023/06/19 08:17:10;;;;;;;4.13;2.90;;;24.00;62.10;;;;;;5073678;28;20400;-63
2023/06/19 08:19:36;;;;;;;6.68;3.78;;;24.00;62.00;;;;;;5072303;28;20033;-63
2023/06/19 08:22:02;;;;;;;5.53;2.80;;;24.00;61.90;;;;;;5072352;28;20052;-63
2023/06/19 08:24:28;;;;;;;4.32;2.80;;;24.10;61.90;;;;;;5072889;28;20068;-63
2023/06/19 08:26:54;;;;;;;4.40;3.20;;;24.10;61.90;;;;;;5069245;28;20041;-63
2023/06/19 08:29:19;;;;;;;4.78;2.78;;;24.10;61.90;;;;;;5071888;28;20044;-63
2023/06/19 08:31:45;;;;;;;4.63;3.08;;;24.00;61.80;;;;;;5073955;28;20170;-63
2023/06/19 08:34:10;;;;;;;4.13;2.92;;;24.00;61.80;;;;;;5073741;28;20037;-64
2023/06/19 08:36:36;;;;;;;3.55;2.78;;;24.10;61.80;;;;;;5073064;28;20044;-63
2023/06/19 08:39:02;;;;;;;4.18;3.10;;;24.10;61.70;;;;;;5073288;28;20396;-63
2023/06/19 08:41:28;;;;;;;4.22;2.90;;;24.10;61.70;;;;;;5073153;28;20396;-63
2023/06/19 08:43:54;;;;;;;6.68;3.30;;;24.10;61.60;;;;;;5072650;28;20048;-63
2023/06/19 08:46:20;;;;;;;5.05;2.75;;;24.10;61.60;;;;;;5072045;28;20090;-63
2023/06/19 08:48:45;;;;;;;4.93;2.83;;;24.10;61.60;;;;;;5071656;28;20040;-63
2023/06/19 08:51:11;;;;;;;4.30;2.83;;;24.10;61.60;;;;;;5073544;28;20048;-63
2023/06/19 08:53:44;;;;;;;5.38;2.60;;;24.10;61.60;;;;;;5073553;28;20127;-63
2023/06/19 08:56:10;;;;;;;4.82;3.30;;;24.10;61.50;;;;;;5071598;28;20087;-63
2023/06/19 08:58:36;;;;;;;4.22;2.92;;;24.10;61.60;;;;;;5073516;28;20032;-63
2023/06/19 09:01:02;;;;;;;3.58;2.70;;;24.10;61.60;;;;;;5073206;28;20481;-62
2023/06/19 09:03:27;;;;;;;6.50;3.17;;;24.10;61.60;;;;;;5070591;28;20049;-63
2023/06/19 09:05:53;;;;;;;5.10;3.15;;;24.10;61.60;;;;;;5073406;28;20095;-63
2023/06/19 09:08:19;;;;;;;6.38;4.22;;;24.10;61.70;;;;;;5072562;28;20146;-63
2023/06/19 09:10:58;;;;;;;4.65;3.20;;;24.10;61.70;;;;;;5070785;28;20094;-63
2023/06/19 09:13:24;;;;;;;5.15;3.20;;;24.10;61.70;;;;;;5073439;28;20076;-63
2023/06/19 09:15:57;;;;;;;5.75;3.00;;;24.10;61.80;;;;;;5073150;28;20075;-63
2023/06/19 09:18:23;;;;;;;4.68;3.40;;;24.10;61.80;;;;;;5071072;28;20127;-63
2023/06/19 09:20:48;;;;;;;6.78;3.60;;;24.00;61.80;;;;;;5072799;28;20135;-63
2023/06/19 09:23:14;;;;;;;5.53;3.17;;;24.10;61.80;;;;;;5071278;28;20132;-64
2023/06/19 09:25:50;;;;;;;7.60;3.78;;;24.10;61.90;;;;;;5070414;28;20139;-63
2023/06/19 09:28:24;;;;;;;7.47;4.40;;;24.00;61.90;;;;;;5070549;28;20056;-64
2023/06/19 09:31:00;;;;;;;7.13;4.28;;;24.00;61.90;;;;;;5070582;28;20070;-62
2023/06/19 09:33:31;;;;;;;6.22;4.07;;;24.00;61.90;;;;;;5071835;28;20047;-62
2023/06/19 09:35:57;;;;;;;6.38;3.65;;;24.00;61.90;;;;;;5065147;28;20040;-62
2023/06/19 09:38:29;;;;;;;7.45;3.67;;;24.00;61.80;;;;;;5069158;28;20131;-63
2023/06/19 09:40:56;;;;;;;8.05;4.10;;;24.00;61.70;;;;;;5072869;28;20063;-63
2023/06/19 09:43:29;;;;;;;8.13;3.90;;;24.00;61.60;;;;;;5071126;28;20049;-62
2023/06/19 09:45:55;;;;;;;7.32;4.05;;;24.00;61.60;;;;;;5072070;28;20044;-62
2023/06/19 09:48:34;;;;;;;5.60;3.58;;;23.90;61.50;;;;;;5071961;28;20104;-63
2023/06/19 09:51:21;;;;;;;5.43;3.53;;;23.90;61.50;;;;;;5070498;28;20071;-63
2023/06/19 09:53:50;;;;;;;6.63;4.10;;;24.00;61.60;;;;;;5070046;28;20049;-63
2023/06/19 09:56:17;;;;;;;6.82;4.35;;;24.00;61.70;;;;;;5064399;28;20047;-62
2023/06/19 09:58:43;;;;;;;7.65;4.90;;;24.00;61.70;;;;;;5070402;28;20400;-62
2023/06/19 10:01:08;;;;;;;6.63;5.93;;;24.00;61.60;;;;;;5053503;28;20087;-62
2023/06/19 10:03:35;;;;;;;8.10;5.50;;;24.00;61.50;;;;;;5070545;28;20080;-62
2023/06/19 10:06:03;;;;;;;7.15;6.28;;;24.10;61.40;;;;;;5071279;28;20111;-63
2023/06/19 10:08:30;;;;;;;9.27;7.00;;;24.10;61.20;;;;;;5070573;28;20040;-63
2023/06/19 10:10:57;;;;;;;9.88;7.47;;;24.10;61.00;;;;;;5072028;28;20086;-62
2023/06/19 10:13:34;;;;;;;10.18;7.88;;;24.10;60.80;;;;;;5068978;28;20094;-64
2023/06/19 10:16:00;;;;;;;11.13;8.20;;;24.10;60.40;;;;;;5072291;28;20119;-63
2023/06/19 10:18:26;;;;;;;9.38;7.70;;;24.10;60.30;;;;;;5072406;28;20123;-63
2023/06/19 10:20:53;;;;;;;9.40;7.97;;;24.10;60.10;;;;;;5071425;28;20080;-63
2023/06/19 10:23:20;;;;;;;11.43;8.88;;;24.20;59.80;;;;;;5070780;28;20040;-63
2023/06/19 10:25:52;;;;;;;10.68;8.15;;;24.20;59.60;;;;;;5071035;28;20067;-63
2023/06/19 10:28:18;;;;;;;10.00;8.43;;;24.20;59.30;;;;;;5069837;28;20492;-64
2023/06/19 10:30:44;;;;;;;9.25;8.10;;;24.20;59.20;;;;;;5072586;28;20051;-64
2023/06/19 10:33:09;;;;;;;9.68;8.40;;;24.20;58.90;;;;;;5071950;28;20082;-64
2023/06/19 10:35:39;;;;;;;9.82;8.25;;;24.20;58.70;;;;;;5071648;28;20064;-63
2023/06/19 10:38:05;;;;;;;9.40;8.07;;;24.20;58.60;;;;;;5072079;28;20534;-65
2023/06/19 10:40:30;;;;;;;8.30;7.03;;;24.20;58.50;;;;;;5071715;28;20040;-63
2023/06/19 10:42:56;;;;;;;8.88;6.20;;;24.20;58.30;;;;;;5070874;28;20045;-64
2023/06/19 10:45:28;;;;;;;7.40;5.50;;;24.20;58.10;;;;;;5071936;28;20114;-64
2023/06/19 10:47:54;;;;;;;7.13;6.03;;;24.30;57.90;;;;;;5071807;28;20040;-63
2023/06/19 10:50:19;;;;;;;7.35;5.65;;;24.20;57.70;;;;;;5071119;28;20033;-63
2023/06/19 10:52:45;;;;;;;8.82;5.88;;;24.20;57.60;;;;;;5075549;28;20045;-62
2023/06/19 10:55:14;;;;;;;7.85;5.00;;;24.20;57.50;;;;;;5074527;28;20047;-63
2023/06/19 10:57:43;;;;;;;8.05;5.40;;;24.20;57.40;;;;;;5074205;28;20085;-63
2023/06/19 11:00:13;;;;;;;9.23;5.43;;;24.20;57.40;;;;;;5075409;28;20036;-63
2023/06/19 11:02:43;;;;;;;7.38;4.72;;;24.20;57.20;;;;;;5074834;28;20052;-63
2023/06/19 11:05:12;;;;;;;8.48;4.93;;;24.20;57.30;;;;;;5074874;28;20396;-62
2023/06/19 11:07:38;;;;;;;8.43;5.22;;;24.20;57.30;;;;;;5075684;28;20062;-63
2023/06/19 11:10:04;;;;;;;7.63;5.13;;;24.20;57.40;;;;;;5071712;28;20040;-63
2023/06/19 11:12:31;;;;;;;7.22;5.15;;;24.30;57.40;;;;;;5076029;28;20040;-63
2023/06/19 11:14:56;;;;;;;7.53;5.47;;;24.30;57.40;;;;;;5073866;28;20040;-63
2023/06/19 11:17:22;;;;;;;7.90;5.43;;;24.30;57.40;;;;;;5072565;28;20451;-61
2023/06/19 11:19:49;;;;;;;12.85;5.88;;;24.30;57.40;;;;;;5089755;28;20044;-64
2023/06/19 11:22:14;;;;;;;8.32;5.35;;;24.30;57.40;;;;;;5093793;28;20127;-64
2023/06/19 11:24:45;;;;;;;9.43;5.07;;;24.40;57.50;;;;;;5078264;28;20508;-63
2023/06/19 11:27:19;;;;;;;9.13;5.32;;;24.40;57.40;;;;;;5074616;28;20036;-63
2023/06/19 11:29:45;;;;;;;10.63;5.95;;;24.40;57.30;;;;;;5073941;28;20120;-62
2023/06/19 11:32:14;;;;;;;9.80;5.28;;;24.40;57.30;;;;;;5073274;28;20113;-63
2023/06/19 11:34:40;;;;;;;8.57;5.05;;;24.50;57.20;;;;;;5073023;28;20123;-63
2023/06/19 11:37:15;;;;;;;8.57;5.43;;;24.40;57.10;;;;;;5074378;28;20167;-62
2023/06/19 11:39:43;;;;;;;8.90;6.00;;;24.50;57.20;;;;;;5072728;28;20098;-63
2023/06/19 11:42:08;;;;;;;7.75;5.65;;;24.50;56.90;;;;;;5074079;28;20041;-63
2023/06/19 11:44:34;;;;;;;9.32;5.82;;;24.50;56.90;;;;;;5073045;28;20040;-64
2023/06/19 11:47:00;;;;;;;7.38;5.07;;;24.50;56.80;;;;;;5076134;28;20125;-63
2023/06/19 11:49:26;;;;;;;8.90;5.25;;;24.50;56.70;;;;;;5074282;28;20036;-63
2023/06/19 11:51:51;;;;;;;7.43;5.20;;;24.50;56.60;;;;;;5073560;28;20135;-63
2023/06/19 11:54:20;;;;;;;8.38;5.57;;;24.50;56.40;;;;;;5072471;28;20041;-63
2023/06/19 11:56:47;;;;;;;9.07;5.22;;;24.50;56.30;;;;;;5074403;28;20048;-63
2023/06/19 11:59:13;;;;;;;8.73;5.68;;;24.60;56.20;;;;;;5073431;28;20131;-63
2023/06/19 12:01:39;;;;;;;7.63;5.10;;;24.60;55.90;;;;;;5073019;28;20119;-64
2023/06/19 12:04:05;;;;;;;8.32;5.18;;;24.60;55.90;;;;;;5074101;28;20119;-64
2023/06/19 12:06:30;;;;;;;7.00;4.97;;;24.60;55.80;;;;;;5073672;28;20044;-63
2023/06/19 12:08:56;;;;;;;7.18;5.18;;;24.60;55.90;;;;;;5074015;28;20043;-64
2023/06/19 12:11:22;;;;;;;7.30;5.10;;;24.70;55.70;;;;;;5072613;28;20533;-63
2023/06/19 12:13:47;;;;;;;7.20;4.72;;;24.70;55.60;;;;;;5073109;28;20032;-64
2023/06/19 12:16:13;;;;;;;10.20;5.53;;;24.60;55.10;;;;;;5073789;28;20109;-64
2023/06/19 12:18:39;;;;;;;6.47;4.82;;;24.60;54.70;;;;;;5073627;28;20037;-63
2023/06/19 12:21:05;;;;;;;7.72;4.88;;;24.70;54.60;;;;;;5072037;28;20441;-64
2023/06/19 12:23:30;;;;;;;8.02;4.85;;;24.70;54.40;;;;;;5072276;28;20044;-64
2023/06/19 12:25:56;;;;;;;7.57;5.20;;;24.70;54.20;;;;;;5081913;28;20040;-64
2023/06/19 12:28:22;;;;;;;10.82;5.70;;;24.70;54.30;;;;;;5089687;28;20098;-64
2023/06/19 12:30:51;;;;;;;8.20;4.68;;;24.70;54.20;;;;;;5078084;28;20498;-64
2023/06/19 12:33:22;;;;;;;8.30;4.75;;;24.70;54.20;;;;;;5093344;28;20048;-64
2023/06/19 12:35:48;;;;;;;8.60;4.65;;;24.70;54.30;;;;;;5073044;28;20045;-65
2023/06/19 12:38:13;;;;;;;7.53;5.00;;;24.70;54.50;;;;;;5073314;28;20055;-65
2023/06/19 12:40:39;;;;;;;7.75;4.78;;;24.70;54.60;;;;;;5072449;28;20155;-65
2023/06/19 12:43:05;;;;;;;6.85;4.72;;;24.80;54.90;;;;;;5073366;28;20048;-63